KSMD/SMD METAR and TAF weather

Enter ICAO airport designator
Station Type Date Time Source
KSMD METAR 2023/02/05 19:55 UTC NOAA

KSMD 051955Z AUTO 20012KT 10SM SCT030 08/02 A2986 RMK A01


Station Type Date Time Source
KSMD Decoded METAR 2023/02/05 19:55 UTC NOAA

Station name not available
Feb 05, 2023 - 02:55 PM EST / 2023.02.05 1955 UTC
Wind: from the SSW (200 degrees) at 14 MPH (12 KT):0
Visibility: 10 mile(s):0
Sky conditions: partly cloudy
Temperature: 46 F (8 C)
Dew Point: 35 F (2 C)
Relative Humidity: 65%
Pressure (altimeter): 29.86 in. Hg (1011 hPa)
ob: KSMD 051955Z AUTO 20012KT 10SM SCT030 08/02 A2986 RMK A01
cycle: 20

Station Type Date Time Source
KSMD TAF UTC NOAA

Error!

Example: see airport list